createdAt,value
2022-08-23T00:02:02.710Z,18.03
2022-08-23T00:04:37.284Z,18.04
2022-08-23T00:07:09.762Z,18.07
2022-08-23T00:09:39.365Z,18.10
2022-08-23T00:12:11.949Z,18.12
2022-08-23T00:14:41.987Z,18.12
2022-08-23T00:17:13.213Z,18.12
2022-08-23T00:19:44.486Z,18.21
2022-08-23T00:22:14.476Z,18.30
2022-08-23T00:24:45.500Z,18.36
2022-08-23T00:27:17.863Z,18.38
2022-08-23T00:29:50.133Z,18.41
2022-08-23T00:32:25.954Z,18.38
2022-08-23T00:34:55.571Z,18.37
2022-08-23T00:37:25.399Z,18.42
2022-08-23T00:39:54.783Z,18.47
2022-08-23T00:42:49.535Z,18.47
2022-08-23T00:45:39.610Z,18.50
2022-08-23T00:48:09.248Z,18.49
2022-08-23T00:50:47.634Z,18.44
2022-08-23T00:53:22.992Z,18.41
2022-08-23T00:55:55.530Z,18.45
2022-08-23T00:58:24.064Z,18.57
2022-08-23T01:00:55.400Z,18.72
2022-08-23T01:03:27.337Z,18.64
2022-08-23T01:06:02.684Z,18.61
2022-08-23T01:08:33.417Z,18.65
2022-08-23T01:11:11.676Z,18.72
2022-08-23T01:13:52.628Z,18.76
2022-08-23T01:16:32.377Z,18.78
2022-08-23T01:19:02.741Z,18.78
2022-08-23T01:21:41.594Z,18.72
2022-08-23T01:24:19.183Z,18.67
2022-08-23T01:26:45.501Z,18.67
2022-08-23T01:29:16.908Z,18.63
2022-08-23T01:31:46.388Z,18.55
2022-08-23T01:34:17.799Z,18.52
2022-08-23T01:36:48.370Z,18.49
2022-08-23T01:39:17.807Z,18.47
2022-08-23T01:41:47.273Z,18.46
2022-08-23T01:44:16.642Z,18.43
2022-08-23T01:46:47.548Z,18.43
2022-08-23T01:49:17.119Z,18.42
2022-08-23T01:51:46.863Z,18.44
2022-08-23T01:54:16.304Z,18.40
2022-08-23T01:56:46.810Z,18.39
2022-08-23T01:59:16.895Z,18.34
2022-08-23T02:01:48.208Z,18.39
2022-08-23T02:04:18.484Z,18.39
2022-08-23T02:06:48.521Z,18.38
2022-08-23T02:09:25.733Z,18.41
2022-08-23T02:11:56.365Z,18.41
2022-08-23T02:14:26.530Z,18.41
2022-08-23T02:17:04.541Z,18.41
2022-08-23T02:19:29.978Z,18.41
2022-08-23T02:21:59.332Z,18.41
2022-08-23T02:24:28.941Z,18.39
2022-08-23T02:27:01.983Z,18.38
2022-08-23T02:29:33.118Z,18.32
2022-08-23T02:32:04.354Z,18.26
2022-08-23T02:34:33.722Z,18.22
2022-08-23T02:37:03.060Z,18.22
2022-08-23T02:39:33.088Z,18.20
2022-08-23T02:42:03.090Z,18.18
2022-08-23T02:44:34.934Z,18.20
2022-08-23T02:47:06.533Z,18.19
2022-08-23T02:49:37.152Z,18.15
2022-08-23T02:52:08.024Z,18.15
2022-08-23T02:54:38.468Z,18.16
2022-08-23T02:57:07.889Z,18.19
2022-08-23T02:59:37.325Z,18.16
2022-08-23T03:02:07.435Z,18.19
2022-08-23T03:04:38.757Z,18.20
2022-08-23T03:07:08.181Z,18.21
2022-08-23T03:09:38.368Z,18.14
2022-08-23T03:12:08.002Z,18.10
2022-08-23T03:14:38.457Z,18.11
2022-08-23T03:17:08.019Z,18.09
2022-08-23T03:19:37.460Z,18.06
2022-08-23T03:22:08.568Z,18.05
2022-08-23T03:24:38.992Z,18.07
2022-08-23T03:27:08.874Z,18.10
2022-08-23T03:29:40.018Z,18.15
2022-08-23T03:32:09.506Z,18.19
2022-08-23T03:34:40.227Z,18.23
2022-08-23T03:37:13.159Z,18.28
2022-08-23T03:39:42.872Z,18.34
2022-08-23T03:42:12.293Z,18.38
2022-08-23T03:44:41.814Z,18.41
2022-08-23T03:47:11.315Z,18.44
2022-08-23T03:49:41.781Z,18.44
2022-08-23T03:52:11.667Z,18.48
2022-08-23T03:54:42.171Z,18.50
2022-08-23T03:57:12.595Z,18.52
2022-08-23T03:59:42.932Z,18.53
2022-08-23T04:02:13.806Z,18.49
2022-08-23T04:04:43.380Z,18.41
2022-08-23T04:07:32.490Z,18.39
2022-08-23T04:10:01.936Z,18.33
2022-08-23T04:12:33.117Z,18.28
2022-08-23T04:15:02.947Z,18.25
2022-08-23T04:17:33.982Z,18.28
2022-08-23T04:20:05.626Z,18.26
2022-08-23T04:22:36.652Z,18.29
2022-08-23T04:25:26.132Z,18.30
2022-08-23T04:27:38.210Z,18.33
2022-08-23T04:30:08.650Z,18.36
2022-08-23T04:32:39.742Z,18.39
2022-08-23T04:35:10.370Z,18.44
2022-08-23T04:37:39.748Z,18.47
2022-08-23T04:40:28.986Z,18.50
2022-08-23T04:42:58.674Z,18.54
2022-08-23T04:45:28.648Z,18.57
2022-08-23T04:47:59.410Z,18.61
2022-08-23T04:50:30.597Z,18.71
2022-08-23T04:53:11.879Z,18.77
2022-08-23T04:55:43.068Z,18.82
2022-08-23T04:58:12.588Z,18.80
2022-08-23T05:00:51.303Z,18.75
2022-08-23T05:03:19.971Z,18.66
2022-08-23T05:05:51.090Z,18.64
2022-08-23T05:08:22.175Z,18.63
2022-08-23T05:10:51.661Z,18.63
2022-08-23T05:13:22.428Z,18.66
2022-08-23T05:15:52.967Z,18.69
2022-08-23T05:18:24.417Z,18.71
2022-08-23T05:20:54.914Z,18.76
2022-08-23T05:23:31.882Z,18.77
2022-08-23T05:26:01.937Z,18.76
2022-08-23T05:28:37.565Z,18.72
2022-08-23T05:31:15.786Z,18.69
2022-08-23T05:33:46.847Z,18.67
2022-08-23T05:36:18.739Z,18.73
2022-08-23T05:38:49.114Z,18.77
2022-08-23T05:41:19.267Z,18.82
2022-08-23T05:43:50.940Z,18.94
2022-08-23T05:46:26.638Z,19.03
2022-08-23T05:48:55.519Z,19.13
2022-08-23T05:51:28.012Z,19.39
2022-08-23T05:53:59.702Z,19.89
2022-08-23T05:56:32.024Z,20.63
2022-08-23T05:59:04.138Z,21.08
2022-08-23T06:01:34.055Z,21.41
2022-08-23T06:04:07.417Z,22.01
2022-08-23T06:06:37.885Z,22.55
2022-08-23T06:09:10.313Z,22.21
2022-08-23T06:11:40.485Z,22.56
2022-08-23T06:14:10.552Z,22.09
2022-08-23T06:16:43.743Z,21.80
2022-08-23T06:19:15.161Z,21.24
2022-08-23T06:21:52.778Z,21.16
2022-08-23T06:24:33.349Z,21.13
2022-08-23T06:27:16.593Z,21.22
2022-08-23T06:29:46.246Z,21.29
2022-08-23T06:32:35.588Z,21.09
2022-08-23T06:35:38.472Z,20.82
2022-08-23T06:37:56.793Z,20.65
2022-08-23T06:40:44.483Z,20.54
2022-08-23T06:43:15.670Z,20.61
2022-08-23T06:45:55.076Z,20.59
2022-08-23T06:48:21.501Z,20.67
2022-08-23T06:50:50.750Z,20.73
2022-08-23T06:53:30.684Z,20.73
2022-08-23T06:56:02.409Z,20.68
2022-08-23T06:58:52.330Z,20.82
2022-08-23T07:01:45.761Z,21.06
2022-08-23T07:04:10.304Z,21.14
2022-08-23T07:06:47.568Z,21.28
2022-08-23T07:09:18.906Z,21.35
2022-08-23T07:11:48.482Z,21.47
2022-08-23T07:14:21.321Z,21.51
2022-08-23T07:16:53.612Z,21.64
2022-08-23T07:19:29.052Z,21.72
2022-08-23T07:21:57.651Z,21.83
2022-08-23T07:24:32.333Z,21.81
2022-08-23T07:26:58.676Z,21.92
2022-08-23T07:29:28.119Z,22.01
2022-08-23T07:31:58.332Z,22.11
2022-08-23T07:34:27.900Z,22.21
2022-08-23T07:36:57.342Z,22.32
2022-08-23T07:39:26.937Z,22.39
2022-08-23T07:41:57.106Z,22.46
2022-08-23T07:44:27.158Z,22.46
2022-08-23T07:46:57.041Z,22.59
2022-08-23T07:49:29.403Z,22.60
2022-08-23T07:52:00.549Z,22.62
2022-08-23T07:54:30.155Z,22.67
2022-08-23T07:57:13.094Z,22.72
2022-08-23T08:00:00.483Z,22.75
2022-08-23T08:02:43.450Z,22.99
2022-08-23T08:05:17.335Z,23.03
2022-08-23T08:07:46.404Z,23.12
2022-08-23T08:10:16.253Z,23.32
2022-08-23T08:12:45.591Z,23.42
2022-08-23T08:15:17.285Z,23.55
2022-08-23T08:17:49.825Z,23.72
2022-08-23T08:20:21.854Z,23.74
2022-08-23T08:22:58.343Z,23.65
2022-08-23T08:25:33.053Z,23.72
2022-08-23T08:28:04.169Z,23.75
2022-08-23T08:30:33.605Z,23.66
2022-08-23T08:33:04.466Z,23.85
2022-08-23T08:35:34.076Z,23.74
2022-08-23T08:38:04.486Z,23.72
2022-08-23T08:40:36.072Z,23.91
2022-08-23T08:43:25.021Z,24.00
2022-08-23T08:46:06.506Z,23.80
2022-08-23T08:48:42.779Z,23.82
2022-08-23T08:51:21.083Z,24.07
2022-08-23T08:53:51.603Z,24.21
2022-08-23T08:56:36.355Z,24.36
2022-08-23T08:59:10.995Z,24.58
2022-08-23T09:01:40.427Z,24.84
2022-08-23T09:04:10.277Z,25.01
2022-08-23T09:06:59.150Z,25.14
2022-08-23T09:09:46.764Z,25.39
2022-08-23T09:12:31.519Z,25.41
2022-08-23T09:15:28.852Z,26.22
2022-08-23T09:18:01.744Z,26.03
2022-08-23T09:20:33.311Z,26.03
2022-08-23T09:23:08.850Z,26.43
2022-08-23T09:25:39.225Z,26.72
2022-08-23T09:28:15.022Z,26.45
2022-08-23T09:30:54.914Z,26.30
2022-08-23T09:33:27.834Z,26.61
2022-08-23T09:36:17.448Z,26.67
2022-08-23T09:39:00.118Z,27.33
2022-08-23T09:41:36.829Z,27.65
2022-08-23T09:44:13.634Z,28.03
2022-08-23T09:46:43.740Z,28.39
2022-08-23T09:49:29.952Z,28.99
2022-08-23T09:52:03.865Z,29.01
2022-08-23T09:54:37.166Z,29.49
2022-08-23T09:57:13.961Z,29.90
2022-08-23T09:59:50.402Z,30.14
2022-08-23T10:02:35.383Z,29.86
2022-08-23T10:05:18.350Z,29.27
2022-08-23T10:08:02.918Z,29.28
2022-08-23T10:10:36.696Z,30.09
2022-08-23T10:13:07.782Z,32.65
2022-08-23T10:16:11.121Z,32.99
2022-08-23T10:19:05.415Z,33.14
2022-08-23T10:21:47.747Z,33.01
2022-08-23T10:24:29.002Z,33.50
2022-08-23T10:27:11.324Z,34.97
2022-08-23T10:29:43.719Z,34.80
2022-08-23T10:32:27.879Z,34.75
2022-08-23T10:35:25.916Z,35.14
2022-08-23T10:38:32.993Z,32.97
2022-08-23T10:41:23.483Z,33.54
2022-08-23T10:44:11.763Z,33.67
2022-08-23T10:46:44.406Z,34.13
2022-08-23T10:49:14.785Z,34.74
2022-08-23T10:51:47.053Z,36.12
2022-08-23T10:54:21.772Z,36.34
2022-08-23T10:56:53.145Z,35.78
2022-08-23T10:59:24.497Z,36.20
2022-08-23T11:02:20.056Z,35.57
2022-08-23T11:05:10.240Z,36.34
2022-08-23T11:07:42.794Z,34.79
2022-08-23T11:10:40.491Z,32.17
2022-08-23T11:13:18.954Z,32.28
2022-08-23T11:15:58.929Z,31.67
2022-08-23T11:18:49.132Z,32.43
2022-08-23T11:21:33.642Z,33.05
2022-08-23T11:24:07.884Z,30.84
2022-08-23T11:26:44.706Z,31.38
2022-08-23T11:29:28.655Z,32.93
2022-08-23T11:32:08.627Z,33.35
2022-08-23T11:34:46.760Z,33.79
2022-08-23T11:37:24.139Z,32.54
2022-08-23T11:40:04.510Z,32.93
2022-08-23T11:42:44.575Z,30.65
2022-08-23T11:45:33.440Z,32.21
2022-08-23T11:48:14.673Z,33.40
2022-08-23T11:51:05.316Z,32.52
2022-08-23T11:53:57.113Z,30.34
2022-08-23T11:56:45.625Z,30.70
2022-08-23T11:59:35.076Z,30.38
2022-08-23T12:02:35.002Z,30.03
2022-08-23T12:05:08.694Z,31.23
2022-08-23T12:07:50.049Z,32.12
2022-08-23T12:10:25.083Z,30.58
2022-08-23T12:13:23.389Z,30.15
2022-08-23T12:16:16.916Z,29.32
2022-08-23T12:18:54.128Z,29.23
2022-08-23T12:21:44.104Z,28.53
2022-08-23T12:24:16.791Z,28.02
2022-08-23T12:27:01.354Z,28.10
2022-08-23T12:30:01.313Z,29.89
2022-08-23T12:32:59.323Z,31.36
2022-08-23T12:35:32.040Z,30.61
2022-08-23T12:38:10.722Z,30.88
2022-08-23T12:40:43.625Z,32.18
2022-08-23T12:43:22.226Z,32.84
2022-08-23T12:45:53.946Z,33.06
2022-08-23T12:48:26.429Z,32.69
2022-08-23T12:50:59.025Z,32.56
2022-08-23T12:53:31.620Z,33.87
2022-08-23T12:56:06.964Z,33.75
2022-08-23T12:58:38.210Z,33.66
2022-08-23T13:01:10.860Z,33.03
2022-08-23T13:03:44.321Z,32.43
2022-08-23T13:06:16.089Z,31.31
2022-08-23T13:09:10.627Z,31.17
2022-08-23T13:11:40.411Z,30.32
2022-08-23T13:14:31.086Z,29.99
2022-08-23T13:17:15.465Z,30.78
2022-08-23T13:19:45.990Z,31.83
2022-08-23T13:22:25.007Z,32.79
2022-08-23T13:27:49.980Z,32.14
2022-08-23T13:30:25.395Z,30.51
2022-08-23T13:33:07.821Z,29.70
2022-08-23T13:35:39.252Z,29.26
2022-08-23T13:38:21.403Z,29.20
2022-08-23T13:41:00.734Z,30.05
2022-08-23T13:43:33.321Z,30.38
2022-08-23T13:46:23.391Z,30.21
2022-08-23T13:49:08.130Z,29.72
2022-08-23T13:51:46.409Z,30.28
2022-08-23T13:54:16.770Z,29.33
2022-08-23T13:56:49.316Z,29.16
2022-08-23T13:59:31.711Z,29.73
2022-08-23T14:02:00.062Z,29.87
2022-08-23T14:04:29.386Z,29.77
2022-08-23T14:06:58.826Z,30.06
2022-08-23T14:09:28.159Z,29.87
2022-08-23T14:11:59.655Z,29.87
2022-08-23T14:14:32.118Z,30.22
2022-08-23T14:17:03.031Z,29.90
2022-08-23T14:22:04.244Z,29.77
2022-08-23T14:24:33.582Z,30.12
2022-08-23T14:27:03.243Z,30.18
2022-08-23T14:29:32.499Z,30.27
2022-08-23T14:32:01.952Z,30.79
2022-08-23T14:34:31.857Z,30.24
2022-08-23T14:39:32.435Z,30.02
2022-08-23T14:42:01.798Z,30.41
2022-08-23T14:44:35.894Z,30.15
2022-08-23T14:47:02.368Z,30.25
2022-08-23T14:49:31.617Z,30.41
2022-08-23T14:52:01.058Z,30.10
2022-08-23T14:54:30.278Z,30.13
2022-08-23T14:56:59.947Z,29.95
2022-08-23T14:59:29.303Z,29.60
2022-08-23T15:01:59.700Z,29.68
2022-08-23T15:04:34.430Z,30.23
2022-08-23T15:07:17.141Z,29.45
2022-08-23T15:09:31.283Z,28.76
2022-08-23T15:14:31.722Z,28.66
2022-08-23T15:17:03.276Z,29.34
2022-08-23T15:19:32.660Z,29.90
2022-08-23T15:22:06.554Z,29.87
2022-08-23T15:24:33.297Z,29.79
2022-08-23T15:27:04.198Z,29.63
2022-08-23T15:29:33.630Z,29.84
2022-08-23T15:32:02.892Z,29.55
2022-08-23T15:34:33.274Z,29.90
2022-08-23T15:37:04.000Z,28.93
2022-08-23T15:39:33.283Z,28.79
2022-08-23T15:42:02.766Z,28.66
2022-08-23T15:44:32.026Z,28.36
2022-08-23T15:47:01.406Z,28.28
2022-08-23T15:49:35.992Z,28.61
2022-08-23T15:52:03.672Z,28.30
2022-08-23T15:54:33.545Z,27.83
2022-08-23T15:57:02.880Z,28.05
2022-08-23T15:59:33.311Z,28.24
2022-08-23T16:02:02.985Z,28.54
2022-08-23T16:04:35.541Z,28.63
2022-08-23T16:07:07.429Z,28.97
2022-08-23T16:09:37.800Z,28.92
2022-08-23T16:12:08.303Z,28.96
2022-08-23T16:14:38.522Z,28.90
2022-08-23T16:17:08.756Z,29.03
2022-08-23T16:19:38.074Z,28.84
2022-08-23T16:22:07.344Z,28.81
2022-08-23T16:24:36.668Z,28.95
2022-08-23T16:27:07.185Z,28.90
2022-08-23T16:29:36.969Z,28.81
2022-08-23T16:32:07.477Z,28.62
2022-08-23T16:34:37.310Z,28.66
2022-08-23T16:37:09.615Z,28.56
2022-08-23T16:39:39.177Z,28.69
2022-08-23T16:42:08.721Z,28.69
2022-08-23T16:44:38.632Z,28.86
2022-08-23T16:47:09.887Z,28.98
2022-08-23T16:49:40.044Z,28.96
2022-08-23T16:52:10.650Z,28.97
2022-08-23T16:54:40.199Z,28.72
2022-08-23T16:57:09.557Z,28.60
2022-08-23T16:59:40.669Z,28.60
2022-08-23T17:02:11.687Z,27.96
2022-08-23T17:04:41.006Z,28.16
2022-08-23T17:07:10.267Z,27.74
2022-08-23T17:09:39.558Z,27.48
2022-08-23T17:12:09.154Z,27.35
2022-08-23T17:14:38.420Z,26.93
2022-08-23T17:17:07.929Z,27.23
2022-08-23T17:19:37.183Z,27.26
2022-08-23T17:22:06.514Z,27.28
2022-08-23T17:24:35.831Z,27.24
2022-08-23T17:27:06.053Z,27.14
2022-08-23T17:29:37.553Z,26.98
2022-08-23T17:32:07.446Z,26.80
2022-08-23T17:34:36.838Z,26.61
2022-08-23T17:37:07.738Z,26.48
2022-08-23T17:39:38.666Z,26.44
2022-08-23T17:42:09.919Z,26.41
2022-08-23T17:44:39.724Z,26.37
2022-08-23T17:47:12.334Z,26.21
2022-08-23T17:49:41.988Z,26.12
2022-08-23T17:52:12.357Z,25.97
2022-08-23T17:54:42.469Z,25.97
2022-08-23T17:57:13.372Z,25.65
2022-08-23T17:59:43.170Z,25.49
2022-08-23T18:02:12.618Z,25.38
2022-08-23T18:04:42.222Z,25.32
2022-08-23T18:07:11.864Z,25.25
2022-08-23T18:09:43.830Z,25.16
2022-08-23T18:12:12.224Z,25.08
2022-08-23T18:14:41.573Z,25.01
2022-08-23T18:17:11.017Z,24.90
2022-08-23T18:19:40.326Z,24.74
2022-08-23T18:22:09.967Z,24.73
2022-08-23T18:24:39.347Z,24.67
2022-08-23T18:27:27.055Z,24.64
2022-08-23T18:29:56.755Z,24.52
2022-08-23T18:32:26.649Z,24.41
2022-08-23T18:34:56.098Z,24.30
2022-08-23T18:37:25.633Z,24.23
2022-08-23T18:39:55.047Z,24.12
2022-08-23T18:42:24.784Z,24.03
2022-08-23T18:44:54.265Z,23.96
2022-08-23T18:47:23.765Z,23.91
2022-08-23T18:49:53.151Z,23.81
2022-08-23T18:52:22.686Z,23.76
2022-08-23T18:54:52.045Z,23.70
2022-08-23T18:57:21.518Z,23.68
2022-08-23T18:59:51.417Z,23.60
2022-08-23T19:02:21.880Z,23.55
2022-08-23T19:04:53.386Z,23.50
2022-08-23T19:07:23.136Z,23.44
2022-08-23T19:09:52.693Z,23.35
2022-08-23T19:12:22.059Z,23.44
2022-08-23T19:14:51.597Z,23.47
2022-08-23T19:17:21.176Z,23.47
2022-08-23T19:19:50.983Z,23.47
2022-08-23T19:22:20.387Z,23.36
2022-08-23T19:24:49.923Z,23.28
2022-08-23T19:27:19.423Z,23.12
2022-08-23T19:29:48.811Z,23.13
2022-08-23T19:32:18.543Z,23.10
2022-08-23T19:34:48.061Z,22.93
2022-08-23T19:37:22.623Z,22.86
2022-08-23T19:39:49.023Z,22.80
2022-08-23T19:42:19.655Z,22.72
2022-08-23T19:44:49.673Z,22.61
2022-08-23T19:47:21.617Z,22.52
2022-08-23T19:49:50.553Z,22.45
2022-08-23T19:52:19.890Z,22.49
2022-08-23T19:54:49.816Z,22.47
2022-08-23T19:57:19.287Z,22.42
2022-08-23T19:59:48.697Z,22.35
2022-08-23T20:02:18.308Z,22.22
2022-08-23T20:04:47.915Z,22.24
2022-08-23T20:07:17.631Z,22.09
2022-08-23T20:09:47.054Z,22.08
2022-08-23T20:12:17.372Z,22.06
2022-08-23T20:14:49.150Z,22.02
2022-08-23T20:17:18.418Z,22.00
2022-08-23T20:19:47.964Z,21.96
2022-08-23T20:22:34.986Z,21.87
2022-08-23T20:25:06.799Z,21.79
2022-08-23T20:27:38.689Z,21.76
2022-08-23T20:30:09.239Z,21.74
2022-08-23T20:32:38.897Z,21.72
2022-08-23T20:35:09.691Z,21.71
2022-08-23T20:37:40.102Z,21.67
2022-08-23T20:40:10.574Z,21.56
2022-08-23T20:42:40.592Z,21.35
2022-08-23T20:45:10.307Z,21.45
2022-08-23T20:47:41.372Z,21.48
2022-08-23T20:50:10.789Z,21.42
2022-08-23T20:52:40.127Z,21.32
2022-08-23T20:55:11.018Z,21.23
2022-08-23T20:57:40.564Z,21.24
2022-08-23T21:00:12.771Z,21.23
2022-08-23T21:02:42.175Z,21.20
2022-08-23T21:05:11.606Z,21.27
2022-08-23T21:07:41.158Z,21.30
2022-08-23T21:10:11.657Z,21.26
2022-08-23T21:12:41.078Z,21.23
2022-08-23T21:15:12.579Z,21.20
2022-08-23T21:17:41.842Z,21.20
2022-08-23T21:20:11.796Z,21.10
2022-08-23T21:22:41.512Z,21.08
2022-08-23T21:25:10.910Z,21.04
2022-08-23T21:27:40.387Z,21.02
2022-08-23T21:30:11.022Z,21.03
2022-08-23T21:32:40.404Z,21.03
2022-08-23T21:35:10.821Z,21.04
2022-08-23T21:37:40.322Z,21.07
2022-08-23T21:40:10.898Z,21.09
2022-08-23T21:42:40.327Z,21.07
2022-08-23T21:45:10.098Z,21.08
2022-08-23T21:47:39.556Z,21.08
2022-08-23T21:50:09.153Z,21.06
2022-08-23T21:52:38.718Z,21.05
2022-08-23T21:55:08.713Z,21.01
2022-08-23T21:57:38.069Z,20.95
2022-08-23T22:00:11.839Z,20.89
2022-08-23T22:02:42.488Z,20.85
2022-08-23T22:05:13.207Z,20.84
2022-08-23T22:07:42.585Z,20.76
2022-08-23T22:10:12.290Z,20.74
2022-08-23T22:12:43.012Z,20.73
2022-08-23T22:15:13.021Z,20.73
2022-08-23T22:17:42.506Z,20.74
2022-08-23T22:20:13.634Z,20.70
2022-08-23T22:22:43.735Z,20.65
2022-08-23T22:25:13.889Z,20.61
2022-08-23T22:27:43.207Z,20.61
2022-08-23T22:30:13.910Z,20.63
2022-08-23T22:32:44.239Z,20.65
2022-08-23T22:35:14.445Z,20.62
2022-08-23T22:38:10.191Z,20.37
2022-08-23T22:40:18.974Z,20.19
2022-08-23T22:42:49.020Z,20.14
2022-08-23T22:45:19.154Z,20.14
2022-08-23T22:47:49.110Z,20.16
2022-08-23T22:50:18.537Z,20.20
2022-08-23T22:52:48.444Z,20.16
2022-08-23T22:55:17.735Z,20.10
2022-08-23T22:57:47.587Z,20.12
2022-08-23T23:00:17.212Z,20.17
2022-08-23T23:02:46.722Z,20.19
2022-08-23T23:05:16.050Z,20.17
2022-08-23T23:07:47.027Z,20.04
2022-08-23T23:10:17.115Z,19.96
2022-08-23T23:12:46.428Z,19.94
2022-08-23T23:15:16.044Z,19.84
2022-08-23T23:17:45.286Z,19.79
2022-08-23T23:20:32.792Z,19.82
2022-08-23T23:23:02.060Z,19.89
2022-08-23T23:25:31.510Z,19.89
2022-08-23T23:28:02.900Z,19.95
2022-08-23T23:30:34.716Z,19.95
2022-08-23T23:33:04.123Z,19.94
2022-08-23T23:35:35.397Z,19.89
2022-08-23T23:38:05.688Z,19.66
2022-08-23T23:40:35.945Z,19.55
2022-08-23T23:43:05.411Z,19.57
2022-08-23T23:45:34.866Z,19.64
2022-08-23T23:48:04.634Z,19.63
2022-08-23T23:50:35.596Z,19.66
2022-08-23T23:53:05.266Z,19.56
2022-08-23T23:55:35.185Z,19.44
2022-08-23T23:58:04.680Z,19.43
